createdAt,value
2022-11-04T00:00:05.491Z,98511.50
2022-11-04T00:00:37.023Z,98512.31
2022-11-04T00:01:08.510Z,98513.75
2022-11-04T00:01:39.960Z,98511.03
2022-11-04T00:02:11.474Z,98513.63
2022-11-04T00:02:43.043Z,98511.38
2022-11-04T00:03:14.611Z,98516.03
2022-11-04T00:03:45.992Z,98519.09
2022-11-04T00:04:17.413Z,98512.97
2022-11-04T00:04:48.817Z,98514.56
2022-11-04T00:05:20.291Z,98520.84
2022-11-04T00:05:51.720Z,98516.16
2022-11-04T00:06:23.176Z,98524.22
2022-11-04T00:06:54.545Z,98514.78
2022-11-04T00:07:25.972Z,98512.16
2022-11-04T00:07:57.469Z,98516.16
2022-11-04T00:08:28.900Z,98521.28
2022-11-04T00:09:00.343Z,98519.69
2022-11-04T00:09:31.737Z,98521.38
2022-11-04T00:10:03.200Z,98519.44
2022-11-04T00:10:34.596Z,98518.97
2022-11-04T00:11:06.002Z,98529.22
2022-11-04T00:11:37.410Z,98522.63
2022-11-04T00:12:08.799Z,98519.91
2022-11-04T00:12:40.230Z,98520.56
2022-11-04T00:13:11.711Z,98518.63
2022-11-04T00:13:43.131Z,98521.84
2022-11-04T00:14:14.583Z,98529.69
2022-11-04T00:14:46.021Z,98523.09
2022-11-04T00:15:17.568Z,98525.84
2022-11-04T00:15:48.955Z,98526.16
2022-11-04T00:16:20.367Z,98525.03
2022-11-04T00:16:51.898Z,98526.16
2022-11-04T00:17:23.334Z,98519.56
2022-11-04T00:17:54.742Z,98524.69
2022-11-04T00:18:26.146Z,98522.75
2022-11-04T00:18:57.564Z,98520.03
2022-11-04T00:19:28.960Z,98520.84
2022-11-04T00:20:00.438Z,98517.75
2022-11-04T00:20:31.847Z,98530.28
2022-11-04T00:21:03.311Z,98527.56
2022-11-04T00:21:34.765Z,98530.28
2022-11-04T00:22:06.202Z,98533.38
2022-11-04T00:22:37.626Z,98538.16
2022-11-04T00:23:09.410Z,98539.28
2022-11-04T00:23:41.081Z,98542.03
2022-11-04T00:24:12.512Z,98540.09
2022-11-04T00:24:43.903Z,98540.44
2022-11-04T00:25:15.436Z,98549.75
2022-11-04T00:25:46.879Z,98548.63
2022-11-04T00:26:18.355Z,98551.34
2022-11-04T00:26:49.760Z,98548.97
2022-11-04T00:27:21.150Z,98552.50
2022-11-04T00:27:52.641Z,98556.03
2022-11-04T00:28:24.026Z,98551.34
2022-11-04T00:28:55.457Z,98552.50
2022-11-04T00:29:26.896Z,98557.16
2022-11-04T00:29:58.296Z,98559.09
2022-11-04T00:30:29.747Z,98562.63
2022-11-04T00:31:01.132Z,98566.16
2022-11-04T00:31:32.519Z,98565.69
2022-11-04T00:32:03.948Z,98570.50
2022-11-04T00:32:35.396Z,98560.69
2022-11-04T00:33:06.796Z,98568.56
2022-11-04T00:33:38.220Z,98572.88
2022-11-04T00:34:09.654Z,98568.22
2022-11-04T00:34:41.089Z,98579.50
2022-11-04T00:35:12.450Z,98572.41
2022-11-04T00:35:43.989Z,98574.34
2022-11-04T00:36:15.363Z,98578.69
2022-11-04T00:36:46.722Z,98579.81
2022-11-04T00:37:18.101Z,98579.50
2022-11-04T00:37:49.501Z,98585.75
2022-11-04T00:38:20.910Z,98580.63
2022-11-04T00:38:52.299Z,98581.41
2022-11-04T00:39:23.841Z,98574.81
2022-11-04T00:39:55.278Z,98580.41
2022-11-04T00:40:26.677Z,98570.63
2022-11-04T00:40:58.171Z,98570.50
2022-11-04T00:41:29.594Z,98564.56
2022-11-04T00:42:01.066Z,98562.28
2022-11-04T00:42:32.511Z,98559.22
2022-11-04T00:43:03.914Z,98557.50
2022-11-04T00:43:35.337Z,98555.09
2022-11-04T00:44:06.842Z,98557.69
2022-11-04T00:44:38.311Z,98567.50
2022-11-04T00:45:09.714Z,98566.03
2022-11-04T00:45:41.189Z,98575.03
2022-11-04T00:46:12.617Z,98578.41
2022-11-04T00:46:44.064Z,98579.34
2022-11-04T00:47:15.437Z,98584.34
2022-11-04T00:47:46.856Z,98582.75
2022-11-04T00:48:18.249Z,98581.16
2022-11-04T00:48:49.710Z,98576.16
2022-11-04T00:49:21.101Z,98572.63
2022-11-04T00:49:52.533Z,98571.97
2022-11-04T00:50:23.915Z,98570.03
2022-11-04T00:50:55.270Z,98565.69
2022-11-04T00:51:26.789Z,98569.88
2022-11-04T00:51:58.224Z,98569.09
2022-11-04T00:52:29.658Z,98566.81
2022-11-04T00:53:01.084Z,98572.28
2022-11-04T00:53:32.513Z,98573.88
2022-11-04T00:54:03.938Z,98571.50
2022-11-04T00:54:35.346Z,98583.56
2022-11-04T00:55:06.726Z,98578.22
2022-11-04T00:55:38.223Z,98579.03
2022-11-04T00:56:09.658Z,98579.03
2022-11-04T00:56:41.073Z,98575.81
2022-11-04T00:57:12.496Z,98570.03
2022-11-04T00:57:43.977Z,98571.16
2022-11-04T00:58:15.398Z,98583.69
2022-11-04T00:58:46.816Z,98586.09
2022-11-04T00:59:18.282Z,98582.56
2022-11-04T00:59:49.706Z,98584.50
2022-11-04T01:00:21.169Z,98582.56
2022-11-04T01:00:52.631Z,98593.50
2022-11-04T01:01:24.254Z,98588.34
2022-11-04T01:01:55.763Z,98591.88
2022-11-04T01:02:27.379Z,98596.09
2022-11-04T01:02:58.837Z,98589.03
2022-11-04T01:03:30.335Z,98595.09
2022-11-04T01:04:01.851Z,98581.09
2022-11-04T01:04:33.257Z,98589.16
2022-11-04T01:05:04.655Z,98589.97
2022-11-04T01:05:36.076Z,98582.56
2022-11-04T01:06:07.751Z,98583.69
2022-11-04T01:06:39.398Z,98580.97
2022-11-04T01:07:10.931Z,98577.09
2022-11-04T01:07:43.784Z,98580.28
2022-11-04T01:08:15.552Z,98592.03
2022-11-04T01:08:47.028Z,98593.63
2022-11-04T01:09:18.435Z,98603.16
2022-11-04T01:09:49.832Z,98605.41
2022-11-04T01:10:21.243Z,98610.09
2022-11-04T01:10:52.752Z,98610.56
2022-11-04T01:11:24.285Z,98609.09
2022-11-04T01:11:55.790Z,98617.94
2022-11-04T01:12:27.233Z,98620.06
2022-11-04T01:12:58.631Z,98615.94
2022-11-04T01:13:30.112Z,98619.47
2022-11-04T01:14:01.535Z,98618.19
2022-11-04T01:14:32.977Z,98620.59
2022-11-04T01:15:04.424Z,98619.94
2022-11-04T01:15:35.810Z,98619.59
2022-11-04T01:16:07.268Z,98629.59
2022-11-04T01:16:38.752Z,98619.59
2022-11-04T01:17:10.205Z,98633.47
2022-11-04T01:17:41.592Z,98621.88
2022-11-04T01:18:12.973Z,98624.28
2022-11-04T01:18:44.406Z,98628.28
2022-11-04T01:19:15.882Z,98629.88
2022-11-04T01:19:47.240Z,98625.53
2022-11-04T01:20:18.607Z,98627.16
2022-11-04T01:20:50.026Z,98632.13
2022-11-04T01:21:21.464Z,98628.75
2022-11-04T01:21:52.973Z,98624.41
2022-11-04T01:22:24.430Z,98625.22
2022-11-04T01:22:55.818Z,98628.41
2022-11-04T01:23:27.218Z,98618.28
2022-11-04T01:23:58.701Z,98623.75
2022-11-04T01:24:30.075Z,98621.34
2022-11-04T01:25:01.496Z,98621.88
2022-11-04T01:25:32.902Z,98625.25
2022-11-04T01:26:04.304Z,98626.59
2022-11-04T01:26:35.657Z,98629.31
2022-11-04T01:27:07.150Z,98631.13
2022-11-04T01:27:38.553Z,98635.13
2022-11-04T01:28:10.193Z,98634.31
2022-11-04T01:28:41.922Z,98634.97
2022-11-04T01:29:13.364Z,98638.69
2022-11-04T01:29:44.779Z,98628.25
2022-11-04T01:30:16.149Z,98630.50
2022-11-04T01:30:47.590Z,98628.56
2022-11-04T01:31:19.048Z,98636.09
2022-11-04T01:31:50.499Z,98640.16
2022-11-04T01:32:21.961Z,98632.09
2022-11-04T01:32:53.355Z,98630.66
2022-11-04T01:33:24.779Z,98633.03
2022-11-04T01:33:56.232Z,98634.97
2022-11-04T01:34:27.640Z,98638.50
2022-11-04T01:34:59.213Z,98634.66
2022-11-04T01:35:30.644Z,98630.78
2022-11-04T01:36:02.084Z,98636.09
2022-11-04T01:36:33.536Z,98642.84
2022-11-04T01:37:04.946Z,98642.22
2022-11-04T01:37:36.406Z,98639.03
2022-11-04T01:38:08.075Z,98639.81
2022-11-04T01:38:39.647Z,98637.91
2022-11-04T01:39:11.142Z,98638.22
2022-11-04T01:39:42.545Z,98640.00
2022-11-04T01:40:13.933Z,98638.69
2022-11-04T01:40:45.362Z,98639.03
2022-11-04T01:41:16.773Z,98639.97
2022-11-04T01:41:48.195Z,98639.78
2022-11-04T01:42:19.674Z,98639.13
2022-11-04T01:42:51.112Z,98643.13
2022-11-04T01:43:22.521Z,98641.53
2022-11-04T01:43:53.999Z,98646.66
2022-11-04T01:44:25.412Z,98642.78
2022-11-04T01:44:56.849Z,98653.25
2022-11-04T01:45:28.289Z,98649.72
2022-11-04T01:45:59.732Z,98656.63
2022-11-04T01:46:31.152Z,98651.38
2022-11-04T01:47:02.656Z,98647.50
2022-11-04T01:47:34.085Z,98647.03
2022-11-04T01:48:05.518Z,98641.91
2022-11-04T01:48:36.904Z,98640.44
2022-11-04T01:49:08.292Z,98639.97
2022-11-04T01:49:43.271Z,98645.44
2022-11-04T01:50:15.237Z,98642.56
2022-11-04T01:50:46.668Z,98652.03
2022-11-04T01:51:18.105Z,98641.44
2022-11-04T01:51:49.508Z,98639.16
2022-11-04T01:52:20.886Z,98645.75
2022-11-04T01:52:52.347Z,98641.91
2022-11-04T01:53:23.774Z,98645.44
2022-11-04T01:53:55.168Z,98643.16
2022-11-04T01:54:26.557Z,98646.69
2022-11-04T01:54:58.000Z,98650.56
2022-11-04T01:55:29.432Z,98649.28
2022-11-04T01:56:00.864Z,98647.84
2022-11-04T01:56:32.272Z,98654.44
2022-11-04T01:57:03.753Z,98644.97
2022-11-04T01:57:35.170Z,98648.63
2022-11-04T01:58:06.594Z,98646.84
2022-11-04T01:58:38.034Z,98647.50
2022-11-04T01:59:09.405Z,98648.63
2022-11-04T01:59:40.820Z,98642.50
2022-11-04T02:00:12.216Z,98653.78
2022-11-04T02:00:43.631Z,98647.84
2022-11-04T02:01:15.235Z,98642.03
2022-11-04T02:01:46.927Z,98644.78
2022-11-04T02:02:18.546Z,98642.84
2022-11-04T02:02:50.058Z,98645.25
2022-11-04T02:03:21.468Z,98653.78
2022-11-04T02:03:52.866Z,98649.75
2022-11-04T02:04:24.283Z,98643.16
2022-11-04T02:04:55.698Z,98652.50
2022-11-04T02:05:27.158Z,98653.16
2022-11-04T02:05:58.571Z,98655.22
2022-11-04T02:06:30.049Z,98655.03
2022-11-04T02:07:01.536Z,98653.44
2022-11-04T02:07:33.561Z,98660.03
2022-11-04T02:08:05.042Z,98664.03
2022-11-04T02:08:36.487Z,98660.03
2022-11-04T02:09:39.347Z,98663.09
2022-11-04T02:10:10.853Z,98657.97
2022-11-04T02:10:42.271Z,98661.50
2022-11-04T02:11:13.771Z,98655.50
2022-11-04T02:11:45.208Z,98660.50
2022-11-04T02:12:16.659Z,98662.75
2022-11-04T02:12:48.137Z,98654.56
2022-11-04T02:13:19.573Z,98653.09
2022-11-04T02:13:50.982Z,98660.97
2022-11-04T02:14:22.416Z,98660.97
2022-11-04T02:14:53.827Z,98663.72
2022-11-04T02:15:25.187Z,98661.78
2022-11-04T02:15:56.577Z,98665.97
2022-11-04T02:16:28.025Z,98666.78
2022-11-04T02:16:59.401Z,98667.91
2022-11-04T02:17:30.829Z,98662.75
2022-11-04T02:18:02.222Z,98675.28
2022-11-04T02:18:33.745Z,98681.41
2022-11-04T02:19:05.162Z,98672.09
2022-11-04T02:19:36.579Z,98670.50
2022-11-04T02:20:08.049Z,98670.81
2022-11-04T02:20:39.451Z,98673.22
2022-11-04T02:21:10.904Z,98678.88
2022-11-04T02:21:42.352Z,98677.75
2022-11-04T02:22:13.764Z,98676.28
2022-11-04T02:22:45.161Z,98673.69
2022-11-04T02:23:16.574Z,98676.91
2022-11-04T02:23:47.988Z,98669.69
2022-11-04T02:24:19.496Z,98670.97
2022-11-04T02:24:50.926Z,98661.81
2022-11-04T02:25:22.371Z,98667.75
2022-11-04T02:25:53.831Z,98667.28
2022-11-04T02:26:25.305Z,98662.63
2022-11-04T02:26:56.702Z,98667.44
2022-11-04T02:27:28.169Z,98665.50
2022-11-04T02:28:00.844Z,98664.38
2022-11-04T02:28:32.303Z,98663.22
2022-11-04T02:29:03.674Z,98654.56
2022-11-04T02:29:35.091Z,98663.22
2022-11-04T02:30:06.474Z,98654.25
2022-11-04T02:30:37.875Z,98654.25
2022-11-04T02:31:09.333Z,98649.56
2022-11-04T02:31:40.742Z,98659.38
2022-11-04T02:32:12.155Z,98658.72
2022-11-04T02:32:43.569Z,98665.44
2022-11-04T02:33:14.955Z,98655.31
2022-11-04T02:33:46.342Z,98660.78
2022-11-04T02:34:17.825Z,98657.38
2022-11-04T02:34:49.241Z,98657.59
2022-11-04T02:35:20.638Z,98656.91
2022-11-04T02:35:52.003Z,98654.66
2022-11-04T02:36:23.462Z,98658.53
2022-11-04T02:36:54.847Z,98653.72
2022-11-04T02:37:26.267Z,98651.31
2022-11-04T02:37:57.694Z,98653.91
2022-11-04T02:38:29.113Z,98655.03
2022-11-04T02:39:00.506Z,98649.56
2022-11-04T02:39:31.973Z,98662.44
2022-11-04T02:40:03.519Z,98659.50
2022-11-04T02:40:35.325Z,98646.19
2022-11-04T02:41:06.796Z,98648.91
2022-11-04T02:41:38.242Z,98652.63
2022-11-04T02:42:09.606Z,98648.97
2022-11-04T02:42:41.022Z,98652.81
2022-11-04T02:43:12.562Z,98648.16
2022-11-04T02:43:43.950Z,98650.56
2022-11-04T02:44:15.426Z,98653.63
2022-11-04T02:44:46.854Z,98655.69
2022-11-04T02:45:18.321Z,98652.31
2022-11-04T02:45:49.783Z,98664.38
2022-11-04T02:46:21.284Z,98653.91
2022-11-04T02:46:52.686Z,98652.91
2022-11-04T02:47:24.118Z,98650.25
2022-11-04T02:47:55.528Z,98648.63
2022-11-04T02:48:26.941Z,98648.63
2022-11-04T02:48:58.325Z,98660.03
2022-11-04T02:49:29.723Z,98655.56
2022-11-04T02:50:01.111Z,98656.22
2022-11-04T02:50:32.490Z,98653.00
2022-11-04T02:51:06.405Z,98659.00
2022-11-04T02:51:37.842Z,98654.16
2022-11-04T02:52:09.222Z,98652.22
2022-11-04T02:52:40.628Z,98658.16
2022-11-04T02:53:12.141Z,98652.81
2022-11-04T02:53:43.658Z,98664.09
2022-11-04T02:54:15.054Z,98661.16
2022-11-04T02:54:46.496Z,98654.25
2022-11-04T02:55:17.924Z,98660.50
2022-11-04T02:55:49.344Z,98653.44
2022-11-04T02:56:20.776Z,98661.03
2022-11-04T02:56:52.244Z,98660.56
2022-11-04T02:57:23.678Z,98665.88
2022-11-04T02:57:55.116Z,98659.28
2022-11-04T02:58:26.514Z,98664.75
2022-11-04T02:58:57.904Z,98665.69
2022-11-04T02:59:29.308Z,98659.41
2022-11-04T03:00:00.680Z,98668.47
2022-11-04T03:00:32.064Z,98662.19
2022-11-04T03:01:03.644Z,98661.38
2022-11-04T03:01:35.280Z,98662.34
2022-11-04T03:02:06.908Z,98667.47
2022-11-04T03:02:38.432Z,98667.28
2022-11-04T03:03:10.373Z,98656.03
2022-11-04T03:03:42.015Z,98663.56
2022-11-04T03:04:13.472Z,98667.75
2022-11-04T03:04:44.866Z,98670.81
2022-11-04T03:05:16.230Z,98671.63
2022-11-04T03:05:47.652Z,98675.94
2022-11-04T03:06:19.098Z,98671.28
2022-11-04T03:06:50.507Z,98674.63
2022-11-04T03:07:21.893Z,98675.75
2022-11-04T03:07:53.317Z,98677.69
2022-11-04T03:08:24.747Z,98674.16
2022-11-04T03:08:56.175Z,98672.88
2022-11-04T03:09:27.561Z,98678.81
2022-11-04T03:09:59.069Z,98684.09
2022-11-04T03:10:30.439Z,98683.78
2022-11-04T03:11:01.872Z,98677.97
2022-11-04T03:11:33.349Z,98683.97
2022-11-04T03:12:04.827Z,98686.38
2022-11-04T03:12:36.282Z,98671.28
2022-11-04T03:13:07.632Z,98687.22
2022-11-04T03:13:39.044Z,98682.88
2022-11-04T03:14:10.471Z,98686.88
2022-11-04T03:14:41.882Z,98685.28
2022-11-04T03:15:13.307Z,98678.34
2022-11-04T03:15:44.703Z,98680.75
2022-11-04T03:16:16.171Z,98679.47
2022-11-04T03:16:47.623Z,98677.28
2022-11-04T03:17:19.106Z,98673.88
2022-11-04T03:17:50.644Z,98672.75
2022-11-04T03:18:22.043Z,98678.22
2022-11-04T03:18:53.537Z,98675.94
2022-11-04T03:19:24.943Z,98673.69
2022-11-04T03:19:56.370Z,98674.16
2022-11-04T03:20:27.750Z,98685.41
2022-11-04T03:20:59.133Z,98686.88
2022-11-04T03:21:30.559Z,98680.75
2022-11-04T03:22:01.996Z,98684.94
2022-11-04T03:22:33.455Z,98677.56
2022-11-04T03:23:04.834Z,98679.16
2022-11-04T03:23:36.236Z,98678.34
2022-11-04T03:24:07.662Z,98678.81
2022-11-04T03:24:39.070Z,98682.53
2022-11-04T03:25:10.485Z,98679.81
2022-11-04T03:25:41.917Z,98689.28
2022-11-04T03:26:13.352Z,98687.81
2022-11-04T03:26:44.825Z,98684.75
2022-11-04T03:27:16.293Z,98686.22
2022-11-04T03:27:47.696Z,98685.09
2022-11-04T03:28:19.103Z,98686.22
2022-11-04T03:28:50.539Z,98678.81
2022-11-04T03:29:21.960Z,98679.47
2022-11-04T03:29:53.416Z,98679.81
2022-11-04T03:30:24.896Z,98682.06
2022-11-04T03:30:56.352Z,98676.44
2022-11-04T03:31:27.791Z,98679.53
2022-11-04T03:31:59.322Z,98684.34
2022-11-04T03:32:30.760Z,98681.94
2022-11-04T03:33:02.187Z,98679.06
2022-11-04T03:33:33.762Z,98680.00
2022-11-04T03:34:05.205Z,98681.47
2022-11-04T03:34:36.626Z,98680.38
2022-11-04T03:35:08.022Z,98684.38
2022-11-04T03:35:39.473Z,98682.44
2022-11-04T03:36:10.869Z,98684.38
2022-11-04T03:36:42.268Z,98681.47
2022-11-04T03:37:13.771Z,98689.97
2022-11-04T03:37:45.261Z,98688.19
2022-11-04T03:38:16.617Z,98692.38
2022-11-04T03:38:48.110Z,98681.78
2022-11-04T03:39:19.513Z,98686.31
2022-11-04T03:39:50.948Z,98685.97
2022-11-04T03:40:22.342Z,98682.72
2022-11-04T03:40:53.797Z,98687.06
2022-11-04T03:41:25.194Z,98683.19
2022-11-04T03:41:56.619Z,98679.00
2022-11-04T03:42:28.113Z,98694.59
2022-11-04T03:42:59.501Z,98685.28
2022-11-04T03:43:30.953Z,98681.41
2022-11-04T03:44:02.435Z,98681.88
2022-11-04T03:44:33.835Z,98683.81
2022-11-04T03:45:05.229Z,98677.69
2022-11-04T03:45:36.649Z,98680.94
2022-11-04T03:46:08.026Z,98686.06
2022-11-04T03:46:39.489Z,98694.59
2022-11-04T03:47:10.923Z,98684.63
2022-11-04T03:47:42.347Z,98686.22
2022-11-04T03:48:13.808Z,98686.06
2022-11-04T03:48:45.242Z,98683.81
2022-11-04T03:49:16.734Z,98689.28
2022-11-04T03:49:48.170Z,98683.69
2022-11-04T03:50:19.582Z,98685.28
2022-11-04T03:50:50.980Z,98683.19
2022-11-04T03:51:22.486Z,98688.34
2022-11-04T03:51:53.933Z,98688.19
2022-11-04T03:52:25.399Z,98677.13
2022-11-04T03:52:56.833Z,98690.97
2022-11-04T03:53:28.302Z,98687.09
2022-11-04T03:53:59.879Z,98686.44
2022-11-04T03:54:31.232Z,98685.66
2022-11-04T03:55:02.644Z,98692.25
2022-11-04T03:55:34.038Z,98693.38
2022-11-04T03:56:05.474Z,98686.13
2022-11-04T03:56:36.957Z,98692.91
2022-11-04T03:57:08.337Z,98683.09
2022-11-04T03:57:39.779Z,98691.28
2022-11-04T03:58:11.397Z,98689.69
2022-11-04T03:58:43.050Z,98693.53
2022-11-04T03:59:14.443Z,98694.81
2022-11-04T03:59:45.930Z,98702.41
2022-11-04T04:00:17.331Z,98696.13
2022-11-04T04:00:48.816Z,98699.34
2022-11-04T04:01:20.342Z,98691.16
2022-11-04T04:01:52.001Z,98698.03
2022-11-04T04:02:23.451Z,98698.03
2022-11-04T04:02:54.866Z,98702.03
2022-11-04T04:03:26.274Z,98700.91
2022-11-04T04:03:57.683Z,98699.44
2022-11-04T04:04:29.183Z,98693.50
2022-11-04T04:05:00.659Z,98700.91
2022-11-04T04:05:32.086Z,98700.56
2022-11-04T04:06:03.531Z,98694.63
2022-11-04T04:06:34.993Z,98704.59
2022-11-04T04:07:06.442Z,98703.44
2022-11-04T04:07:37.817Z,98705.53
2022-11-04T04:08:09.559Z,98702.31
2022-11-04T04:08:41.343Z,98705.06
2022-11-04T04:09:12.726Z,98708.13
2022-11-04T04:09:44.082Z,98711.00
2022-11-04T04:10:15.468Z,98705.38
2022-11-04T04:10:46.838Z,98701.19
2022-11-04T04:11:18.263Z,98709.38
2022-11-04T04:11:49.668Z,98702.31
2022-11-04T04:12:21.139Z,98705.53
2022-11-04T04:12:52.647Z,98715.19
2022-11-04T04:13:24.035Z,98709.38
2022-11-04T04:13:55.440Z,98706.84
2022-11-04T04:14:26.887Z,98708.91
2022-11-04T04:14:58.290Z,98716.31
2022-11-04T04:15:29.772Z,98707.00
2022-11-04T04:16:01.169Z,98719.56
2022-11-04T04:16:32.597Z,98715.88
2022-11-04T04:17:04.071Z,98716.66
2022-11-04T04:17:35.506Z,98719.06
2022-11-04T04:18:07.287Z,98719.06
2022-11-04T04:18:39.068Z,98716.34
2022-11-04T04:19:10.500Z,98718.28
2022-11-04T04:19:41.936Z,98712.97
2022-11-04T04:20:13.374Z,98722.28
2022-11-04T04:20:44.753Z,98710.88
2022-11-04T04:21:16.115Z,98717.47
2022-11-04T04:21:47.518Z,98714.56
2022-11-04T04:22:18.899Z,98702.50
2022-11-04T04:22:50.384Z,98718.28
2022-11-04T04:23:21.814Z,98722.28
2022-11-04T04:23:53.248Z,98711.22
2022-11-04T04:24:24.753Z,98715.41
2022-11-04T04:24:56.198Z,98718.59
2022-11-04T04:25:27.620Z,98708.63
2022-11-04T04:25:59.005Z,98719.88
2022-11-04T04:26:30.483Z,98719.06
2022-11-04T04:27:01.882Z,98715.06
2022-11-04T04:27:33.301Z,98718.59
2022-11-04T04:28:04.786Z,98714.78
2022-11-04T04:28:36.183Z,98711.06
2022-11-04T04:29:07.576Z,98712.66
2022-11-04T04:29:39.010Z,98714.13
2022-11-04T04:30:10.440Z,98711.06
2022-11-04T04:30:41.839Z,98713.31
2022-11-04T04:31:13.239Z,98710.91
2022-11-04T04:31:44.796Z,98716.22
2022-11-04T04:32:16.244Z,98712.03
2022-11-04T04:32:47.686Z,98711.38
2022-11-04T04:33:19.168Z,98711.25
2022-11-04T04:33:50.546Z,98711.38
2022-11-04T04:34:22.017Z,98710.25
2022-11-04T04:34:53.399Z,98713.13
2022-11-04T04:35:24.790Z,98714.13
2022-11-04T04:35:56.200Z,98716.19
2022-11-04T04:36:27.589Z,98712.03
2022-11-04T04:36:58.955Z,98712.19
2022-11-04T04:37:30.384Z,98712.38
2022-11-04T04:38:01.779Z,98714.28
2022-11-04T04:38:33.423Z,98712.84
2022-11-04T04:39:04.824Z,98719.75
2022-11-04T04:39:36.263Z,98724.91
2022-11-04T04:40:07.697Z,98722.00
2022-11-04T04:40:39.143Z,98715.91
2022-11-04T04:41:10.575Z,98719.09
2022-11-04T04:41:41.962Z,98722.50
2022-11-04T04:42:13.405Z,98725.84
2022-11-04T04:42:44.822Z,98719.41
2022-11-04T04:43:16.212Z,98727.94
2022-11-04T04:43:47.732Z,98732.09
2022-11-04T04:44:19.134Z,98729.06
2022-11-04T04:44:50.521Z,98729.72
2022-11-04T04:45:21.903Z,98732.28
2022-11-04T04:45:53.332Z,98732.28
2022-11-04T04:46:24.828Z,98726.97
2022-11-04T04:46:56.246Z,98728.75
2022-11-04T04:47:27.717Z,98732.13
2022-11-04T04:47:59.159Z,98729.41
2022-11-04T04:48:30.602Z,98730.53
2022-11-04T04:49:02.074Z,98736.31
2022-11-04T04:49:33.646Z,98727.47
2022-11-04T04:50:05.084Z,98726.50
2022-11-04T04:50:36.476Z,98728.28
2022-11-04T04:51:07.992Z,98717.22
2022-11-04T04:51:39.388Z,98727.16
2022-11-04T04:52:10.802Z,98732.28
2022-11-04T04:52:42.199Z,98734.22
2022-11-04T04:53:13.597Z,98734.88
2022-11-04T04:53:44.945Z,98738.88
2022-11-04T04:54:16.402Z,98729.41
2022-11-04T04:54:47.821Z,98743.53
2022-11-04T04:55:19.302Z,98735.81
2022-11-04T04:55:50.774Z,98731.47
2022-11-04T04:56:22.238Z,98734.53
2022-11-04T04:56:53.616Z,98738.06
2022-11-04T04:57:25.077Z,98729.72
2022-11-04T04:57:56.569Z,98734.38
2022-11-04T04:58:27.980Z,98731.00
2022-11-04T04:58:59.430Z,98739.19
2022-11-04T04:59:30.872Z,98738.56
2022-11-04T05:00:02.381Z,98735.81
2022-11-04T05:00:33.820Z,98742.59
2022-11-04T05:01:05.307Z,98741.47
2022-11-04T05:01:36.780Z,98746.41
2022-11-04T05:02:08.447Z,98742.41
2022-11-04T05:02:40.011Z,98743.53
2022-11-04T05:03:11.887Z,98746.91
2022-11-04T05:03:45.304Z,98746.25
2022-11-04T05:04:16.925Z,98748.38
2022-11-04T05:04:48.427Z,98747.91
2022-11-04T05:05:19.927Z,98748.53
2022-11-04T05:05:52.679Z,98752.38
2022-11-04T05:06:26.538Z,98759.44
2022-11-04T05:06:57.913Z,98753.97
2022-11-04T05:07:29.487Z,98755.41
2022-11-04T05:08:00.912Z,98756.06
2022-11-04T05:08:32.353Z,98754.78
2022-11-04T05:09:03.750Z,98754.31
2022-11-04T05:09:35.153Z,98761.84
2022-11-04T05:10:06.539Z,98757.19
2022-11-04T05:10:37.960Z,98763.44
2022-11-04T05:11:09.365Z,98762.66
2022-11-04T05:11:40.821Z,98766.19
2022-11-04T05:12:12.387Z,98758.31
2022-11-04T05:12:43.784Z,98763.13
2022-11-04T05:13:15.234Z,98762.97
2022-11-04T05:13:46.604Z,98763.16
2022-11-04T05:14:18.033Z,98763.94
2022-11-04T05:14:49.462Z,98767.31
2022-11-04T05:15:20.869Z,98770.53
2022-11-04T05:15:52.241Z,98763.47
2022-11-04T05:16:23.658Z,98764.28
2022-11-04T05:16:55.042Z,98766.69
2022-11-04T05:17:26.473Z,98772.28
2022-11-04T05:17:57.853Z,98776.00
2022-11-04T05:18:29.324Z,98776.16
2022-11-04T05:19:00.712Z,98775.19
2022-11-04T05:19:32.118Z,98777.13
2022-11-04T05:20:03.573Z,98776.00
2022-11-04T05:20:35.004Z,98780.00
2022-11-04T05:21:06.422Z,98770.06
2022-11-04T05:21:37.821Z,98789.66
2022-11-04T05:22:09.264Z,98789.31
2022-11-04T05:22:40.726Z,98779.69
2022-11-04T05:23:12.157Z,98791.56
2022-11-04T05:23:43.601Z,98781.13
2022-11-04T05:24:14.981Z,98789.16
2022-11-04T05:24:46.380Z,98783.72
2022-11-04T05:25:17.760Z,98789.81
2022-11-04T05:25:49.144Z,98787.06
2022-11-04T05:26:20.556Z,98779.84
2022-11-04T05:26:52.068Z,98783.22
2022-11-04T05:27:23.523Z,98784.66
2022-11-04T05:27:54.914Z,98782.41
2022-11-04T05:28:26.265Z,98783.22
2022-11-04T05:28:57.671Z,98789.16
2022-11-04T05:29:29.054Z,98787.25
2022-11-04T05:30:00.490Z,98783.88
2022-11-04T05:30:31.882Z,98785.47
2022-11-04T05:31:03.298Z,98786.44
2022-11-04T05:31:34.685Z,98789.47
2022-11-04T05:32:06.244Z,98789.16
2022-11-04T05:32:37.706Z,98791.56
2022-11-04T05:33:09.290Z,98790.47
2022-11-04T05:33:40.861Z,98783.53
2022-11-04T05:34:12.253Z,98795.56
2022-11-04T05:34:43.728Z,98783.53
2022-11-04T05:35:15.147Z,98792.53
2022-11-04T05:35:46.638Z,98784.50
2022-11-04T05:36:18.074Z,98791.72
2022-11-04T05:36:49.670Z,98784.81
2022-11-04T05:37:21.109Z,98786.91
2022-11-04T05:37:52.651Z,98782.25
2022-11-04T05:38:24.077Z,98786.91
2022-11-04T05:38:55.525Z,98787.88
2022-11-04T05:39:26.981Z,98786.59
2022-11-04T05:39:58.458Z,98790.44
2022-11-04T05:40:29.855Z,98784.97
2022-11-04T05:41:01.333Z,98780.00
2022-11-04T05:41:32.727Z,98783.38
2022-11-04T05:42:04.122Z,98789.16
2022-11-04T05:42:35.600Z,98789.47
2022-11-04T05:43:07.222Z,98788.84
2022-11-04T05:43:38.873Z,98786.75
2022-11-04T05:44:10.260Z,98794.63
2022-11-04T05:44:41.621Z,98787.88
2022-11-04T05:45:13.071Z,98787.53
2022-11-04T05:45:44.481Z,98783.72
2022-11-04T05:46:15.932Z,98785.94
2022-11-04T05:46:47.356Z,98787.25
2022-11-04T05:47:18.763Z,98783.53
2022-11-04T05:47:50.263Z,98786.13
2022-11-04T05:48:21.639Z,98789.31
2022-11-04T05:48:53.021Z,98782.75
2022-11-04T05:49:24.445Z,98789.31
2022-11-04T05:49:55.828Z,98789.66
2022-11-04T05:50:27.219Z,98788.53
2022-11-04T05:50:58.606Z,98785.47
2022-11-04T05:51:30.017Z,98782.25
2022-11-04T05:52:01.564Z,98784.19
2022-11-04T05:52:32.927Z,98784.19
2022-11-04T05:53:04.367Z,98784.81
2022-11-04T05:53:35.767Z,98778.72
2022-11-04T05:54:07.158Z,98785.00
2022-11-04T05:54:38.588Z,98779.84
2022-11-04T05:55:09.997Z,98787.88
2022-11-04T05:55:41.424Z,98790.13
2022-11-04T05:56:12.859Z,98784.34
2022-11-04T05:56:44.266Z,98785.47
2022-11-04T05:57:15.668Z,98785.16
2022-11-04T05:57:47.100Z,98788.53
2022-11-04T05:58:18.621Z,98789.16
2022-11-04T05:58:50.030Z,98789.16
2022-11-04T05:59:21.418Z,98788.66
2022-11-04T05:59:53.013Z,98777.44
2022-11-04T06:00:24.398Z,98787.72
2022-11-04T06:00:55.774Z,98790.13
2022-11-04T06:01:27.263Z,98790.78
2022-11-04T06:01:58.876Z,98786.13
2022-11-04T06:02:30.467Z,98792.38
2022-11-04T06:03:02.060Z,98794.63
2022-11-04T06:03:33.659Z,98788.03
2022-11-04T06:04:05.163Z,98788.84
2022-11-04T06:04:36.605Z,98796.88
2022-11-04T06:05:08.102Z,98801.06
2022-11-04T06:05:39.560Z,98795.75
2022-11-04T06:06:11.062Z,98796.06
2022-11-04T06:06:42.504Z,98802.81
2022-11-04T06:07:13.921Z,98801.34
2022-11-04T06:07:45.502Z,98804.25
2022-11-04T06:08:16.939Z,98804.41
2022-11-04T06:08:48.472Z,98802.50
2022-11-04T06:09:20.024Z,98799.78
2022-11-04T06:09:51.497Z,98810.84